| time (UTC) | temp F | wind direction | speed MPH | gust MPH | rain 1hr in | rain 24hr in | rain mn in | humidity % | barometer mb |
| 20260905132815 | 87 | 336 | 0.0 | 0.0 | 0.05 | 0.05 | 0.05 | 60 | 1017.9 |
| 20260905132314 | 88 | 335 | 0.0 | 0.0 | 0.05 | 0.05 | 0.05 | 55 | 1017.9 |
| 20260905131814 | 88 | 336 | 0.0 | 0.0 | 0.05 | 0.05 | 0.05 | 53 | 1017.9 |
| 20260905130315 | 90 | 336 | 0.0 | 0.0 | 0.05 | 0.05 | 0.05 | 51 | 1018.0 |
| 20260905124315 | 87 | 336 | 0.0 | 0.0 | 0.05 | 0.05 | 0.05 | 58 | 1018.2 |
| 20260905123815 | 86 | 336 | 1.0 | 6.0 | 0.05 | 0.05 | 0.05 | 58 | 1018.2 |
| 20260905123315 | 86 | 336 | 2.0 | 6.0 | 0.05 | 0.05 | 0.05 | 56 | 1018.2 |
| 20260905122815 | 87 | 343 | 2.0 | 5.0 | 0.00 | 0.00 | 0.00 | 51 | 1018.4 |
| 20260905122315 | 86 | 13 | 2.0 | 5.0 | 0.00 | 0.00 | 0.00 | 53 | 1018.4 |
| 20260905121814 | 86 | 125 | 2.0 | 6.0 | 0.00 | 0.00 | 0.00 | 53 | 1018.4 |
| 20260905120815 | 84 | 150 | 2.0 | 6.0 | 0.00 | 0.00 | 0.00 | 55 | 1018.5 |
| 20260905120314 | 84 | 263 | 2.0 | 5.0 | 0.00 | 0.00 | 0.00 | 54 | 1018.5 |
| 20260905115815 | 84 | 247 | 3.0 | 5.0 | 0.00 | 0.00 | 0.00 | 54 | 1018.7 |
| 20260905115315 | 84 | 267 | 3.0 | 5.0 | 0.00 | 0.00 | 0.00 | 55 | 1018.7 |
| 20260905114815 | 83 | 332 | 3.0 | 8.0 | 0.00 | 0.00 | 0.00 | 55 | 1018.7 |
| 20260905114315 | 83 | 283 | 2.0 | 8.0 | 0.00 | 0.00 | 0.00 | 54 | 1018.7 |
| 20260905113815 | 83 | 239 | 2.0 | 7.0 | 0.00 | 0.00 | 0.00 | 55 | 1018.7 |
| 20260905113315 | 82 | 217 | 2.0 | 5.0 | 0.00 | 0.00 | 0.00 | 56 | 1018.7 |
| 20260905112815 | 82 | 357 | 2.0 | 5.0 | 0.00 | 0.00 | 0.00 | 55 | 1018.8 |
| 20260905112315 | 82 | 203 | 2.0 | 5.0 | 0.00 | 0.00 | 0.00 | 56 | 1018.8 |
| 20260905111814 | 81 | 269 | 2.0 | 3.0 | 0.00 | 0.00 | 0.00 | 57 | 1018.8 |
| 20260905111314 | 81 | 245 | 2.0 | 3.0 | 0.00 | 0.00 | 0.00 | 57 | 1018.8 |
| 20260905110815 | 81 | 207 | 2.0 | 3.0 | 0.00 | 0.00 | 0.00 | 56 | 1018.8 |
| 20260905110315 | 81 | 207 | 2.0 | 5.0 | 0.00 | 0.00 | 0.00 | 57 | 1018.8 |
| 20260905105315 | 81 | 193 | 2.0 | 3.0 | 0.00 | 0.00 | 0.00 | 58 | 1019.1 |
| 20260905104315 | 80 | 194 | 2.0 | 3.0 | 0.00 | 0.00 | 0.00 | 57 | 1019.1 |
| 20260905103815 | 80 | 193 | 2.0 | 3.0 | 0.00 | 0.00 | 0.00 | 56 | 1019.1 |
| 20260905103315 | 80 | 193 | 2.0 | 3.0 | 0.00 | 0.00 | 0.00 | 57 | 1019.1 |
| 20260905102814 | 79 | 206 | 2.0 | 3.0 | 0.00 | 0.00 | 0.00 | 61 | 1019.1 |
| 20260905102314 | 79 | 206 | 2.0 | 3.0 | 0.00 | 0.00 | 0.00 | 61 | 1019.1 |
| 20260905101815 | 79 | 208 | 2.0 | 3.0 | 0.00 | 0.00 | 0.00 | 62 | 1019.1 |
| 20260905101315 | 79 | 208 | 2.0 | 3.0 | 0.00 | 0.00 | 0.00 | 62 | 1019.3 |
| 20260905100815 | 78 | 207 | 2.0 | 5.0 | 0.00 | 0.00 | 0.00 | 64 | 1019.3 |
| 20260905100316 | 77 | 200 | 2.0 | 5.0 | 0.00 | 0.00 | 0.00 | 66 | 1019.3 |
| 20260905095814 | 77 | 202 | 2.0 | 5.0 | 0.00 | 0.00 | 0.00 | 66 | 1019.3 |
| 20260905095314 | 76 | 205 | 2.0 | 3.0 | 0.00 | 0.00 | 0.00 | 67 | 1019.3 |
| 20260905094815 | 76 | 205 | 2.0 | 3.0 | 0.00 | 0.00 | 0.00 | 69 | 1019.3 |
| 20260905093816 | 75 | 256 | 2.0 | 5.0 | 0.00 | 0.00 | 0.00 | 70 | 1019.5 |
| 20260905093315 | 75 | 249 | 2.0 | 5.0 | 0.00 | 0.00 | 0.00 | 70 | 1019.5 |
| 20260905092815 | 75 | 281 | 2.0 | 5.0 | 0.00 | 0.00 | 0.00 | 72 | 1019.5 |
| 20260905091815 | 74 | 269 | 2.0 | 2.0 | 0.00 | 0.00 | 0.00 | 74 | 1019.5 |
| 20260905091315 | 74 | 269 | 2.0 | 5.0 | 0.00 | 0.00 | 0.00 | 73 | 1019.5 |
| 20260905090815 | 74 | 269 | 2.0 | 5.0 | 0.00 | 0.00 | 0.00 | 73 | 1019.5 |
| 20260905090315 | 73 | 301 | 2.0 | 5.0 | 0.00 | 0.00 | 0.00 | 73 | 1019.5 |
| 20260905085815 | 73 | 286 | 2.0 | 5.0 | 0.00 | 0.00 | 0.00 | 74 | 1019.5 |
| 20260905085315 | 73 | 253 | 2.0 | 5.0 | 0.00 | 0.00 | 0.00 | 74 | 1019.5 |
| 20260905083815 | 73 | 194 | 2.0 | 5.0 | 0.00 | 0.00 | 0.00 | 74 | 1019.1 |
| 20260905083316 | 72 | 344 | 2.0 | 5.0 | 0.00 | 0.00 | 0.00 | 75 | 1019.1 |
| 20260905082815 | 72 | 3 | 2.0 | 5.0 | 0.00 | 0.00 | 0.00 | 75 | 1019.3 |
| 20260905081314 | 71 | 182 | 2.0 | 5.0 | 0.00 | 0.00 | 0.00 | 78 | 1019.2 |
| 20260905080815 | 71 | 182 | 2.0 | 5.0 | 0.00 | 0.00 | 0.00 | 78 | 1019.2 |
| 20260905080314 | 70 | 189 | 2.0 | 3.0 | 0.00 | 0.00 | 0.00 | 79 | 1019.2 |
| 20260905075815 | 70 | 167 | 2.0 | 3.0 | 0.00 | 0.00 | 0.00 | 80 | 1019.1 |
| 20260905075315 | 69 | 111 | 2.0 | 5.0 | 0.00 | 0.00 | 0.00 | 79 | 1019.1 |
| 20260905074815 | 69 | 310 | 1.0 | 5.0 | 0.00 | 0.00 | 0.00 | 80 | 1019.1 |
| 20260905074315 | 69 | 328 | 0.0 | 3.0 | 0.00 | 0.00 | 0.00 | 82 | 1018.9 |
| 20260905073815 | 68 | 349 | 1.0 | 2.0 | 0.00 | 0.00 | 0.00 | 84 | 1018.9 |
| 20260905073315 | 68 | 349 | 1.0 | 2.0 | 0.00 | 0.00 | 0.00 | 85 | 1018.9 |
| 20260905072816 | 67 | 349 | 2.0 | 2.0 | 0.00 | 0.00 | 0.00 | 85 | 1018.9 |
| 20260905072315 | 67 | 349 | 2.0 | 3.0 | 0.00 | 0.00 | 0.00 | 85 | 1018.9 |
| 20260905071815 | 67 | 334 | 2.0 | 5.0 | 0.00 | 0.00 | 0.00 | 85 | 1018.9 |
| 20260905070815 | 66 | 212 | 2.0 | 3.0 | 0.00 | 0.00 | 0.00 | 87 | 1019.0 |
| 20260905070315 | 66 | 212 | 1.0 | 3.0 | 0.00 | 0.00 | 0.00 | 88 | 1019.0 |
| 20260905065815 | 66 | 215 | 2.0 | 3.0 | 0.00 | 0.00 | 0.00 | 88 | 1018.9 |
| 20260905065315 | 66 | 344 | 2.0 | 3.0 | 0.00 | 0.00 | 0.00 | 87 | 1018.9 |
| 20260905064815 | 66 | 339 | 2.0 | 5.0 | 0.00 | 0.00 | 0.00 | 87 | 1018.9 |
| 20260905064315 | 65 | 302 | 2.0 | 5.0 | 0.00 | 0.00 | 0.00 | 88 | 1019.1 |
| 20260905063815 | 65 | 3 | 1.0 | 6.0 | 0.00 | 0.00 | 0.00 | 88 | 1019.1 |
| 20260905063315 | 65 | 353 | 0.0 | 6.0 | 0.00 | 0.00 | 0.00 | 88 | 1019.1 |
| 20260905062816 | 65 | 15 | 1.0 | 6.0 | 0.00 | 0.00 | 0.00 | 88 | 1019.0 |
| 20260905062315 | 65 | 1 | 1.0 | 1.0 | 0.00 | 0.00 | 0.00 | 88 | 1019.0 |
| 20260905061315 | 65 | 1 | 1.0 | 3.0 | 0.00 | 0.00 | 0.00 | 89 | 1019.4 |
| 20260905060815 | 65 | 1 | 2.0 | 3.0 | 0.00 | 0.00 | 0.00 | 89 | 1019.4 |
| 20260905055815 | 65 | 359 | 2.0 | 5.0 | 0.00 | 0.00 | 0.00 | 89 | 1019.1 |
| 20260905055315 | 65 | 152 | 2.0 | 5.0 | 0.00 | 0.00 | 0.00 | 89 | 1019.1 |
| 20260905054816 | 65 | 195 | 2.0 | 5.0 | 0.00 | 0.00 | 0.00 | 89 | 1019.1 |
| 20260905053815 | 65 | 350 | 1.0 | 3.0 | 0.00 | 0.00 | 0.00 | 89 | 1018.8 |
| 20260905053315 | 65 | 287 | 1.0 | 2.0 | 0.00 | 0.00 | 0.00 | 89 | 1018.8 |
| 20260905052815 | 65 | 295 | 1.0 | 2.0 | 0.00 | 0.00 | 0.00 | 89 | 1019.2 |
| 20260905052316 | 65 | 322 | 0.0 | 2.0 | 0.00 | 0.00 | 0.00 | 89 | 1019.2 |
| 20260905051816 | 65 | 14 | 1.0 | 2.0 | 0.00 | 0.00 | 0.00 | 88 | 1019.2 |
| 20260905051316 | 65 | 14 | 2.0 | 5.0 | 0.00 | 0.00 | 0.00 | 88 | 1018.8 |
| 20260905050815 | 65 | 14 | 2.0 | 5.0 | 0.00 | 0.00 | 0.00 | 88 | 1018.8 |
| 20260905050315 | 65 | 12 | 1.0 | 5.0 | 0.00 | 0.00 | 0.00 | 88 | 1018.8 |
| 20260905045815 | 65 | 356 | 1.0 | 3.0 | 0.00 | 0.00 | 0.00 | 88 | 1018.3 |
| 20260905045315 | 65 | 356 | 1.0 | 3.0 | 0.00 | 0.00 | 0.00 | 87 | 1018.3 |
| 20260905044816 | 65 | 9 | 2.0 | 2.0 | 0.00 | 0.00 | 0.00 | 87 | 1018.3 |
| 20260905044315 | 65 | 9 | 2.0 | 3.0 | 0.00 | 0.00 | 0.00 | 87 | 1018.5 |
| 20260905043816 | 65 | 9 | 2.0 | 5.0 | 0.00 | 0.00 | 0.00 | 87 | 1018.5 |
| 20260905042816 | 65 | 350 | 2.0 | 5.0 | 0.00 | 0.00 | 0.00 | 87 | 1018.5 |
| 20260905042315 | 65 | 6 | 2.0 | 5.0 | 0.00 | 0.00 | 0.00 | 87 | 1018.5 |
| 20260905041815 | 65 | 257 | 1.0 | 5.0 | 0.00 | 0.00 | 0.00 | 87 | 1018.5 |
| 20260905040815 | 65 | 4 | 0.0 | 2.0 | 0.00 | 0.00 | 0.00 | 87 | 1018.8 |
| 20260905040315 | 65 | 4 | 0.0 | 2.0 | 0.00 | 0.00 | 0.00 | 87 | 1018.8 |
| 20260905035816 | 65 | 4 | 1.0 | 2.0 | 0.00 | 0.00 | 0.00 | 87 | 1018.9 |
| 20260905035315 | 65 | 4 | 2.0 | 5.0 | 0.00 | 0.00 | 0.00 | 87 | 1018.9 |
| 20260905034316 | 66 | 0 | 1.0 | 5.0 | 0.00 | 0.00 | 0.00 | 87 | 1018.8 |
| 20260905033816 | 66 | 276 | 1.0 | 3.0 | 0.00 | 0.00 | 0.00 | 87 | 1018.8 |
| 20260905033316 | 66 | 276 | 0.0 | 5.0 | 0.00 | 0.00 | 0.00 | 87 | 1018.8 |
| 20260905032815 | 66 | 310 | 0.0 | 5.0 | 0.00 | 0.00 | 0.00 | 86 | 1018.8 |
| 20260905032315 | 66 | 5 | 0.0 | 2.0 | 0.00 | 0.00 | 0.00 | 86 | 1018.8 |
| 20260905031816 | 66 | 5 | 0.0 | 2.0 | 0.00 | 0.00 | 0.00 | 85 | 1018.8 |
| 20260905031316 | 66 | 5 | 0.0 | 2.0 | 0.00 | 0.00 | 0.00 | 85 | 1018.9 |
| 20260905030815 | 66 | 5 | 1.0 | 2.0 | 0.00 | 0.00 | 0.00 | 85 | 1018.9 |
| 20260905030316 | 66 | 5 | 1.0 | 3.0 | 0.00 | 0.00 | 0.00 | 85 | 1018.9 |
| 20260905025815 | 66 | 5 | 1.0 | 3.0 | 0.00 | 0.00 | 0.00 | 85 | 1018.9 |
| 20260905025315 | 67 | 5 | 1.0 | 3.0 | 0.00 | 0.00 | 0.00 | 85 | 1018.9 |
| 20260905024816 | 67 | 5 | 2.0 | 2.0 | 0.00 | 0.00 | 0.00 | 85 | 1018.9 |
| 20260905024316 | 67 | 5 | 2.0 | 3.0 | 0.00 | 0.00 | 0.00 | 85 | 1018.9 |
| 20260905023816 | 67 | 5 | 2.0 | 6.0 | 0.00 | 0.00 | 0.00 | 85 | 1018.9 |
| 20260905023315 | 67 | 5 | 2.0 | 6.0 | 0.00 | 0.00 | 0.00 | 85 | 1018.9 |
| 20260905021815 | 67 | 16 | 1.0 | 5.0 | 0.00 | 0.00 | 0.00 | 85 | 1018.8 |
| 20260905021315 | 67 | 270 | 1.0 | 5.0 | 0.00 | 0.00 | 0.00 | 86 | 1018.8 |
| 20260905020816 | 67 | 8 | 1.0 | 3.0 | 0.00 | 0.00 | 0.00 | 85 | 1018.8 |
| 20260905020315 | 67 | 8 | 0.0 | 3.0 | 0.00 | 0.00 | 0.00 | 86 | 1018.8 |
| 20260905015816 | 67 | 8 | 0.0 | 2.0 | 0.00 | 0.00 | 0.00 | 86 | 1018.9 |
| 20260905015316 | 67 | 8 | 0.0 | 2.0 | 0.00 | 0.00 | 0.00 | 85 | 1018.9 |
| 20260905014816 | 67 | 8 | 1.0 | 2.0 | 0.00 | 0.00 | 0.00 | 86 | 1018.9 |
| 20260905014315 | 67 | 8 | 2.0 | 5.0 | 0.00 | 0.00 | 0.00 | 85 | 1019.0 |
| 20260905013816 | 67 | 8 | 2.0 | 5.0 | 0.00 | 0.00 | 0.00 | 85 | 1019.0 |
| 20260905013315 | 67 | 4 | 1.0 | 5.0 | 0.00 | 0.00 | 0.00 | 85 | 1019.0 |
| 20260905012816 | 67 | 5 | 2.0 | 5.0 | 0.00 | 0.00 | 0.00 | 85 | 1019.0 |
| 20260905012317 | 67 | 357 | 2.0 | 3.0 | 0.00 | 0.00 | 0.00 | 85 | 1019.0 |
| 20260905011816 | 67 | 0 | 1.0 | 3.0 | 0.00 | 0.00 | 0.00 | 85 | 1019.0 |
| 20260905011316 | 67 | 357 | 0.0 | 3.0 | 0.00 | 0.00 | 0.00 | 85 | 1019.1 |
| 20260905010816 | 67 | 299 | 0.0 | 3.0 | 0.00 | 0.00 | 0.00 | 85 | 1019.1 |
| 20260905010316 | 67 | 266 | 0.0 | 2.0 | 0.00 | 0.00 | 0.00 | 85 | 1019.1 |
| 20260905005816 | 68 | 266 | 0.0 | 3.0 | 0.00 | 0.00 | 0.00 | 85 | 1019.1 |
| 20260905005316 | 68 | 266 | 0.0 | 3.0 | 0.00 | 0.00 | 0.00 | 85 | 1019.1 |
| 20260905004815 | 68 | 266 | 1.0 | 3.0 | 0.00 | 0.00 | 0.00 | 85 | 1019.1 |
| 20260905004316 | 68 | 293 | 1.0 | 2.0 | 0.00 | 0.00 | 0.00 | 84 | 1019.1 |
| 20260905003816 | 68 | 293 | 1.0 | 2.0 | 0.00 | 0.00 | 0.00 | 84 | 1019.1 |
| 20260905002816 | 69 | 293 | 1.0 | 2.0 | 0.00 | 0.00 | 0.00 | 82 | 1019.2 |
| 20260905002316 | 69 | 310 | 1.0 | 2.0 | 0.00 | 0.00 | 0.00 | 82 | 1019.2 |
| 20260905001816 | 69 | 352 | 1.0 | 2.0 | 0.00 | 0.00 | 0.00 | 82 | 1019.2 |
| 20260905001315 | 69 | 352 | 1.0 | 2.0 | 0.00 | 0.00 | 0.00 | 82 | 1019.4 |
| 20260905000816 | 69 | 352 | 1.0 | 5.0 | 0.00 | 0.00 | 0.00 | 82 | 1019.4 |
| 20260905000318 | 69 | 352 | 0.0 | 5.0 | 0.00 | 0.00 | 0.00 | 82 | 1019.4 |
| 20260904235816 | 69 | 352 | 1.0 | 3.0 | 0.00 | 0.00 | 0.00 | 82 | 1019.4 |
| 20260904235317 | 69 | 352 | 1.0 | 2.0 | 0.00 | 0.00 | 0.00 | 81 | 1019.4 |
| 20260904234816 | 70 | 352 | 1.0 | 2.0 | 0.00 | 0.00 | 0.00 | 81 | 1019.4 |
| 20260904234316 | 70 | 353 | 1.0 | 2.0 | 0.00 | 0.00 | 0.00 | 81 | 1019.4 |
| 20260904233816 | 70 | 353 | 1.0 | 3.0 | 0.00 | 0.00 | 0.00 | 81 | 1019.4 |
| 20260904233316 | 70 | 352 | 0.0 | 3.0 | 0.00 | 0.00 | 0.00 | 81 | 1019.4 |
| 20260904232815 | 70 | 353 | 1.0 | 2.0 | 0.00 | 0.00 | 0.00 | 81 | 1019.5 |
| 20260904231816 | 70 | 353 | 1.0 | 3.0 | 0.00 | 0.00 | 0.00 | 80 | 1019.5 |
| 20260904231316 | 70 | 353 | 1.0 | 3.0 | 0.00 | 0.00 | 0.00 | 80 | 1019.6 |
| 20260904230815 | 70 | 353 | 1.0 | 3.0 | 0.00 | 0.00 | 0.00 | 80 | 1019.6 |
| 20260904230316 | 71 | 300 | 1.0 | 2.0 | 0.00 | 0.00 | 0.00 | 79 | 1019.6 |
| 20260904225816 | 71 | 300 | 1.0 | 3.0 | 0.00 | 0.00 | 0.00 | 78 | 1019.7 |
| 20260904225316 | 71 | 300 | 0.0 | 3.0 | 0.00 | 0.00 | 0.00 | 78 | 1019.7 |
| 20260904224816 | 71 | 333 | 1.0 | 3.0 | 0.00 | 0.00 | 0.00 | 78 | 1019.7 |
| 20260904224317 | 71 | 358 | 1.0 | 3.0 | 0.00 | 0.00 | 0.00 | 77 | 1019.7 |
| 20260904221816 | 72 | 3 | 2.0 | 2.0 | 0.00 | 0.00 | 0.00 | 75 | 1019.6 |
| 20260904221316 | 72 | 4 | 2.0 | 5.0 | 0.00 | 0.00 | 0.00 | 76 | 1019.6 |
| 20260904220902 | 72 | 3 | 1.0 | 5.0 | 0.00 | 0.00 | 0.00 | 74 | 1019.6 |
| 20260904220318 | 72 | 351 | 0.0 | 5.0 | 0.00 | 0.00 | 0.00 | 74 | 1019.6 |
| 20260904215817 | 72 | 214 | 0.0 | 2.0 | 0.00 | 0.00 | 0.00 | 74 | 1019.5 |
| 20260904215316 | 72 | 214 | 0.0 | 2.0 | 0.00 | 0.00 | 0.00 | 75 | 1019.5 |
| 20260904214816 | 72 | 213 | 1.0 | 2.0 | 0.00 | 0.00 | 0.00 | 74 | 1019.5 |
| 20260904214316 | 73 | 213 | 1.0 | 2.0 | 0.00 | 0.00 | 0.00 | 75 | 1019.5 |
| 20260904213316 | 73 | 343 | 1.0 | 2.0 | 0.00 | 0.00 | 0.00 | 74 | 1019.5 |
| 20260904212816 | 73 | 357 | 2.0 | 3.0 | 0.00 | 0.00 | 0.00 | 74 | 1019.5 |
| 20260904212316 | 74 | 359 | 2.0 | 3.0 | 0.00 | 0.00 | 0.00 | 74 | 1019.5 |
| 20260904211816 | 74 | 359 | 2.0 | 3.0 | 0.00 | 0.00 | 0.00 | 73 | 1019.5 |
| 20260904211316 | 74 | 338 | 1.0 | 3.0 | 0.00 | 0.00 | 0.00 | 73 | 1019.6 |
| 20260904210816 | 74 | 26 | 2.0 | 2.0 | 0.00 | 0.00 | 0.00 | 72 | 1019.6 |
| 20260904205816 | 74 | 26 | 2.0 | 2.0 | 0.00 | 0.00 | 0.00 | 70 | 1019.7 |
| 20260904205317 | 74 | 26 | 2.0 | 3.0 | 0.00 | 0.00 | 0.00 | 70 | 1019.7 |
| 20260904204816 | 74 | 26 | 2.0 | 3.0 | 0.00 | 0.00 | 0.00 | 71 | 1019.7 |
| 20260904204316 | 74 | 16 | 1.0 | 3.0 | 0.00 | 0.00 | 0.00 | 69 | 1019.7 |
| 20260904203816 | 74 | 14 | 1.0 | 3.0 | 0.00 | 0.00 | 0.00 | 71 | 1019.7 |
| 20260904202817 | 75 | 6 | 2.0 | 2.0 | 0.00 | 0.00 | 0.00 | 71 | 1019.7 |
| 20260904202316 | 75 | 6 | 2.0 | 5.0 | 0.00 | 0.00 | 0.00 | 70 | 1019.7 |
| 20260904201816 | 75 | 6 | 2.0 | 7.0 | 0.00 | 0.00 | 0.00 | 70 | 1019.7 |
| 20260904201316 | 75 | 353 | 2.0 | 7.0 | 0.00 | 0.00 | 0.00 | 69 | 1019.7 |
| 20260904200817 | 75 | 21 | 2.0 | 7.0 | 0.00 | 0.00 | 0.00 | 69 | 1019.7 |
| 20260904195754 | 75 | 45 | 2.0 | 5.0 | 0.00 | 0.00 | 0.00 | 69 | 1019.6 |
| 20260904195254 | 75 | 61 | 2.0 | 7.0 | 0.00 | 0.00 | 0.00 | 68 | 1019.6 |
| 20260904194754 | 76 | 40 | 2.0 | 7.0 | 0.00 | 0.00 | 0.00 | 67 | 1019.6 |
| 20260904194255 | 76 | 23 | 2.0 | 7.0 | 0.00 | 0.00 | 0.00 | 67 | 1019.7 |
| 20260904193755 | 76 | 27 | 3.0 | 6.0 | 0.00 | 0.00 | 0.00 | 68 | 1019.7 |
| 20260904193255 | 76 | 16 | 3.0 | 8.0 | 0.00 | 0.00 | 0.00 | 68 | 1019.7 |
| 20260904192755 | 76 | 26 | 3.0 | 8.0 | 0.00 | 0.00 | 0.00 | 68 | 1019.7 |
| 20260904192255 | 76 | 23 | 3.0 | 8.0 | 0.00 | 0.00 | 0.00 | 67 | 1019.7 |
| 20260904191756 | 76 | 18 | 3.0 | 8.0 | 0.00 | 0.00 | 0.00 | 66 | 1019.7 |
| 20260904190755 | 77 | 65 | 3.0 | 7.0 | 0.00 | 0.00 | 0.00 | 64 | 1019.6 |
| 20260904190255 | 78 | 299 | 3.0 | 7.0 | 0.00 | 0.00 | 0.00 | 63 | 1019.6 |
| 20260904185755 | 78 | 304 | 3.0 | 9.0 | 0.00 | 0.00 | 0.00 | 66 | 1019.5 |
| 20260904185256 | 78 | 75 | 2.0 | 9.0 | 0.00 | 0.00 | 0.00 | 65 | 1019.5 |
| 20260904184755 | 78 | 8 | 3.0 | 9.0 | 0.00 | 0.00 | 0.00 | 65 | 1019.5 |
| 20260904184255 | 78 | 77 | 3.0 | 6.0 | 0.00 | 0.00 | 0.00 | 64 | 1019.3 |
| 20260904183756 | 78 | 53 | 3.0 | 7.0 | 0.00 | 0.00 | 0.00 | 64 | 1019.3 |
| 20260904182755 | 78 | 56 | 2.0 | 8.0 | 0.00 | 0.00 | 0.00 | 64 | 1019.2 |
| 20260904182255 | 78 | 312 | 2.0 | 6.0 | 0.00 | 0.00 | 0.00 | 64 | 1019.2 |
| 20260904181755 | 79 | 49 | 2.0 | 6.0 | 0.00 | 0.00 | 0.00 | 63 | 1019.2 |
| 20260904181256 | 79 | 66 | 2.0 | 6.0 | 0.00 | 0.00 | 0.00 | 62 | 1019.0 |
| 20260904180755 | 79 | 18 | 2.0 | 6.0 | 0.00 | 0.00 | 0.00 | 61 | 1019.0 |
| 20260904180255 | 80 | 59 | 2.0 | 6.0 | 0.00 | 0.00 | 0.00 | 61 | 1019.0 |
| 20260904175755 | 80 | 2 | 3.0 | 6.0 | 0.00 | 0.00 | 0.00 | 60 | 1018.9 |
| 20260904175255 | 80 | 5 | 3.0 | 6.0 | 0.00 | 0.00 | 0.00 | 59 | 1018.9 |